Grant, Michigan
Current Conditions -  °F | °C
As of 8:32 PM on Friday 19 Dec 2014 (Local Time) from KFFX Reporting Station
Clear Clear  
Wind Chill: 24°   Ceiling: Unl
Heat Index: 24°   Visibility: 10mi
Dew Point: 18°   Wind: 0mph
Humidity: 78%   Direction: NA
Pressure: 30.29"   Gusts: NA
Location:  43.34°N, 85.81°W
Report Text: KFFX 200132Z AUTO 00000KT 10SM CLR M05/M08 A3029 RMK AO2 T10461079
Loading
Personal Weather Stations






























Interactive Weather Map New forecast layout! Learn more

10-Day Weather Forecast

Advertisements
Track Severe Weather on mobile